createdAt,value
2018-06-18T02:03:49.673Z,6.00
2018-06-18T02:04:49.636Z,7.20
2018-06-18T02:06:42.603Z,7.10
2018-06-18T02:07:42.555Z,6.70
2018-06-18T02:09:35.495Z,6.40
2018-06-18T02:10:35.446Z,6.70
2018-06-18T02:12:28.350Z,6.60
2018-06-18T02:13:28.327Z,6.30
2018-06-18T02:15:21.272Z,6.00
2018-06-18T02:16:21.253Z,6.20
2018-06-18T02:18:15.104Z,5.70
2018-06-18T02:19:14.139Z,5.40
2018-06-18T02:21:07.130Z,5.40
2018-06-18T02:22:07.097Z,5.60
2018-06-18T02:24:00.047Z,5.70
2018-06-18T02:25:00.030Z,5.80
2018-06-18T02:26:52.937Z,5.50
2018-06-18T02:27:52.912Z,5.80
2018-06-18T02:29:45.875Z,5.30
2018-06-18T02:30:45.832Z,5.40
2018-06-18T02:32:38.725Z,5.40
2018-06-18T02:33:38.714Z,5.50
2018-06-18T02:35:31.748Z,4.90
2018-06-18T02:36:31.653Z,5.10
2018-06-18T02:38:24.699Z,5.00
2018-06-18T02:39:24.612Z,4.90
2018-06-18T02:41:17.545Z,5.00
2018-06-18T02:42:17.496Z,4.90
2018-06-18T02:44:10.445Z,4.50
2018-06-18T02:45:10.394Z,4.90
2018-06-18T02:47:03.382Z,4.90
2018-06-18T02:48:03.357Z,5.10
2018-06-18T02:49:56.321Z,4.80
2018-06-18T02:50:56.295Z,4.80
2018-06-18T02:52:49.251Z,4.60
2018-06-18T02:53:49.227Z,4.80
2018-06-18T02:55:42.192Z,4.70
2018-06-18T02:56:42.176Z,5.00
2018-06-18T02:58:35.249Z,4.80
2018-06-18T02:59:35.217Z,5.00
2018-06-18T03:01:28.198Z,5.10
2018-06-18T03:02:28.147Z,4.80
2018-06-18T03:04:21.132Z,4.60
2018-06-18T03:05:21.090Z,4.70
2018-06-18T03:07:13.992Z,4.50
2018-06-18T03:08:14.012Z,4.80
2018-06-18T03:10:06.896Z,4.70
2018-06-18T03:11:06.877Z,4.80
2018-06-18T03:12:59.767Z,4.70
2018-06-18T03:13:59.767Z,5.00
2018-06-18T03:15:52.705Z,4.80
2018-06-18T03:16:52.672Z,4.90
2018-06-18T03:18:45.614Z,4.70
2018-06-18T03:19:45.589Z,4.60
2018-06-18T03:21:38.519Z,4.90
2018-06-18T03:22:38.474Z,4.90
2018-06-18T03:24:31.403Z,5.20
2018-06-18T03:25:31.369Z,5.00
2018-06-18T03:27:24.332Z,5.20
2018-06-18T03:28:24.309Z,5.30
2018-06-18T03:30:17.202Z,5.20
2018-06-18T03:31:17.190Z,4.90
2018-06-18T03:33:10.121Z,5.20
2018-06-18T03:34:10.099Z,4.70
2018-06-18T03:36:03.025Z,5.10
2018-06-18T03:37:03.004Z,4.90
2018-06-18T03:38:02.984Z,5.20
2018-06-18T03:39:02.994Z,5.30
2018-06-18T03:40:02.974Z,4.70
2018-06-18T03:41:02.992Z,4.60
2018-06-18T03:42:02.968Z,4.60
2018-06-18T03:43:02.971Z,5.00
2018-06-18T03:44:02.967Z,4.60
2018-06-18T03:45:02.966Z,4.90
2018-06-18T03:46:02.961Z,5.00
2018-06-18T03:47:02.965Z,5.00
2018-06-18T03:48:02.977Z,5.20
2018-06-18T03:49:02.953Z,5.40
2018-06-18T03:50:02.949Z,5.10
2018-06-18T03:51:02.940Z,5.10
2018-06-18T03:52:02.937Z,4.80
2018-06-18T03:53:02.937Z,5.20
2018-06-18T03:54:02.926Z,5.20
2018-06-18T03:55:02.929Z,4.90
2018-06-18T03:56:02.920Z,5.00
2018-06-18T03:57:02.939Z,5.20
2018-06-18T03:58:02.929Z,4.80
2018-06-18T03:59:02.917Z,4.90
2018-06-18T04:00:02.913Z,5.30
2018-06-18T04:01:02.903Z,4.90
2018-06-18T04:02:02.905Z,5.20
2018-06-18T04:03:02.890Z,5.00
2018-06-18T04:04:02.898Z,4.80
2018-06-18T04:05:02.891Z,5.10
2018-06-18T04:06:02.888Z,4.80
2018-06-18T04:07:02.890Z,5.00
2018-06-18T04:08:02.883Z,4.60
2018-06-18T04:09:02.865Z,4.20
2018-06-18T04:11:32.974Z,4.90
2018-06-18T15:51:20.650Z,4.70
2018-06-18T15:52:38.593Z,2.90
2018-06-18T16:01:07.633Z,2.70
2018-06-18T16:02:33.964Z,2.70
2018-06-18T19:38:36.256Z,3.30
2018-06-18T19:39:36.256Z,4.30
2018-06-18T19:41:29.180Z,3.80
2018-06-18T19:42:29.151Z,4.30
2018-06-18T19:43:29.180Z,4.10
2018-06-18T19:44:29.148Z,4.20
2018-06-18T19:45:29.141Z,4.20
2018-06-18T19:46:29.145Z,4.30
2018-06-18T19:47:29.354Z,4.20
2018-06-18T19:48:29.154Z,4.50
2018-06-18T19:49:29.171Z,4.30
2018-06-18T19:50:29.208Z,4.40
2018-06-18T19:51:29.133Z,4.00
2018-06-18T19:52:29.155Z,3.80
2018-06-18T19:53:29.203Z,4.20
2018-06-18T19:54:29.132Z,4.10
2018-06-18T19:55:29.137Z,4.00
2018-06-18T19:56:29.198Z,4.30
2018-06-18T19:57:29.135Z,4.00
2018-06-18T19:58:29.122Z,3.90
2018-06-18T19:59:29.137Z,3.90
2018-06-18T20:00:29.144Z,4.00
2018-06-18T20:01:29.298Z,3.90
2018-06-18T20:02:29.151Z,4.00
2018-06-18T20:03:29.147Z,4.00
2018-06-18T20:04:29.112Z,3.90
2018-06-18T20:05:29.141Z,3.90
2018-06-18T20:06:29.114Z,3.70
2018-06-18T20:07:29.111Z,3.90
2018-06-18T20:08:29.104Z,3.70
2018-06-18T20:09:29.102Z,4.00
2018-06-18T20:10:29.108Z,3.90
2018-06-18T20:11:29.162Z,4.20
2018-06-18T20:12:29.103Z,4.00
2018-06-18T20:13:29.135Z,4.00
2018-06-18T20:14:29.089Z,4.20
2018-06-18T20:15:29.094Z,4.00
2018-06-18T20:16:29.091Z,4.40
2018-06-18T20:17:29.088Z,4.00
2018-06-18T20:18:29.098Z,4.30
2018-06-18T20:19:29.080Z,4.40
2018-06-18T20:20:29.083Z,4.60
2018-06-18T20:21:29.108Z,4.60
2018-06-18T20:22:29.087Z,4.10
2018-06-18T20:23:29.077Z,4.50
2018-06-18T20:24:29.071Z,4.40
2018-06-18T20:25:29.079Z,4.40
2018-06-18T20:26:29.162Z,5.00
2018-06-18T20:27:29.076Z,4.40
2018-06-18T20:28:29.068Z,4.60
2018-06-18T20:29:29.073Z,4.50
2018-06-18T20:30:29.089Z,4.50
2018-06-18T20:31:29.063Z,5.00
2018-06-18T20:32:29.059Z,5.00
2018-06-18T20:33:29.057Z,4.90
2018-06-18T20:34:29.056Z,4.80
2018-06-18T20:35:29.056Z,5.00
2018-06-18T20:36:29.054Z,4.70
2018-06-18T20:37:29.048Z,4.80
2018-06-18T20:38:29.044Z,4.60
2018-06-18T20:39:29.059Z,4.50
2018-06-18T20:40:29.049Z,4.60
2018-06-18T20:41:29.043Z,4.70
2018-06-18T20:42:29.053Z,4.80
2018-06-18T20:43:29.063Z,4.40
2018-06-18T20:44:29.132Z,4.90
2018-06-18T20:45:29.036Z,4.90
2018-06-18T20:46:29.033Z,4.60
2018-06-18T20:47:29.030Z,4.90
2018-06-18T20:48:29.030Z,5.00
2018-06-18T20:49:29.028Z,5.10
2018-06-18T20:50:29.052Z,4.80
2018-06-18T20:51:29.019Z,4.60
2018-06-18T20:52:29.037Z,4.80
2018-06-18T20:53:29.039Z,4.80
2018-06-18T20:54:29.036Z,4.90
2018-06-18T20:55:29.062Z,4.60
2018-06-18T20:56:29.021Z,4.40
2018-06-18T20:57:29.019Z,4.60
2018-06-18T20:58:29.001Z,4.20
2018-06-18T20:59:29.063Z,4.50
2018-06-18T21:00:29.029Z,4.30
2018-06-18T21:01:29.004Z,4.30
2018-06-18T21:02:29.056Z,4.20
2018-06-18T21:03:28.992Z,4.30
2018-06-18T21:04:29.021Z,4.40
2018-06-18T21:05:28.984Z,4.60
2018-06-18T21:06:28.983Z,4.30
2018-06-18T21:07:28.997Z,4.70
2018-06-18T21:08:28.979Z,4.80
2018-06-18T21:09:28.978Z,4.60
2018-06-18T21:10:29.007Z,4.70
2018-06-18T21:11:28.971Z,4.70
2018-06-18T21:12:28.965Z,4.50
2018-06-18T21:13:28.966Z,4.30
2018-06-18T21:14:28.985Z,4.80
2018-06-18T21:15:28.963Z,4.80
2018-06-18T21:16:28.968Z,4.20
2018-06-18T21:17:28.997Z,4.50
2018-06-18T21:18:28.967Z,4.20
2018-06-18T21:19:28.960Z,4.20
2018-06-18T21:20:28.991Z,4.20
2018-06-18T21:21:28.996Z,4.20
2018-06-18T21:22:28.948Z,4.30
2018-06-18T21:23:29.012Z,4.00
2018-06-18T21:24:29.020Z,4.30
2018-06-18T21:25:29.024Z,4.30
2018-06-18T21:26:29.059Z,4.20
2018-06-18T21:27:28.929Z,4.10
2018-06-18T21:28:28.926Z,4.20
2018-06-18T21:29:28.939Z,4.20
2018-06-18T21:30:28.921Z,4.20
2018-06-18T21:31:28.920Z,4.20
2018-06-18T21:32:28.936Z,4.10
2018-06-18T21:33:28.914Z,4.20
2018-06-18T21:34:28.915Z,5.00
2018-06-18T21:35:28.901Z,4.60
2018-06-18T21:36:28.957Z,4.70
2018-06-18T21:37:28.912Z,5.20
2018-06-18T21:38:28.920Z,5.00
2018-06-18T21:39:28.900Z,4.80
2018-06-18T21:40:28.922Z,4.80
2018-06-18T21:41:28.906Z,4.70
2018-06-18T21:42:28.887Z,4.50
2018-06-18T21:43:28.890Z,4.70
2018-06-18T21:44:28.885Z,4.50
2018-06-18T21:45:28.884Z,4.80
2018-06-18T21:46:28.879Z,4.60
2018-06-18T21:47:28.879Z,5.20
2018-06-18T21:48:28.876Z,5.20
2018-06-18T21:49:28.870Z,5.00
2018-06-18T21:50:28.868Z,5.10
2018-06-18T21:51:28.874Z,4.80
2018-06-18T21:52:28.859Z,5.10
2018-06-18T21:53:28.853Z,4.90
2018-06-18T21:54:28.859Z,4.90
2018-06-18T21:55:28.849Z,4.60
2018-06-18T21:56:28.845Z,4.70
2018-06-18T21:57:28.844Z,4.80
2018-06-18T21:58:28.842Z,5.20
2018-06-18T21:59:28.830Z,4.70
2018-06-18T22:00:28.833Z,4.80
2018-06-18T22:01:28.830Z,4.80
2018-06-18T22:02:28.827Z,4.60
2018-06-18T22:03:28.843Z,5.10
2018-06-18T22:04:28.820Z,4.60
2018-06-18T22:05:28.820Z,4.30
2018-06-18T22:06:28.817Z,4.70
2018-06-18T22:07:28.810Z,4.40
2018-06-18T22:08:28.810Z,4.70
2018-06-18T22:09:28.824Z,4.60
2018-06-18T22:10:29.030Z,4.50
2018-06-18T22:11:28.796Z,4.40
2018-06-18T22:12:28.784Z,4.60
2018-06-18T22:13:28.793Z,4.60
2018-06-18T22:14:28.790Z,4.60
2018-06-18T22:15:28.787Z,4.70
2018-06-18T22:16:28.782Z,4.50
2018-06-18T22:17:28.783Z,4.70
2018-06-18T22:18:28.778Z,4.50
2018-06-18T22:19:28.773Z,4.60
2018-06-18T22:20:28.774Z,4.80
2018-06-18T22:21:28.768Z,4.90
2018-06-18T22:22:28.762Z,4.60
2018-06-18T22:23:28.755Z,4.20
2018-06-18T22:24:28.755Z,4.90
2018-06-18T22:25:28.751Z,4.60
2018-06-18T22:26:28.748Z,4.30
2018-06-18T22:27:28.746Z,4.00
2018-06-18T22:28:28.739Z,4.40
2018-06-18T22:29:28.750Z,4.60
2018-06-18T22:30:28.734Z,4.80
2018-06-18T22:31:28.732Z,4.60
2018-06-18T22:32:28.776Z,4.70
2018-06-18T22:33:28.723Z,4.90
2018-06-18T22:34:28.723Z,4.60
2018-06-18T22:35:28.711Z,4.70
2018-06-18T22:36:28.715Z,4.40
2018-06-18T22:37:28.717Z,4.40
2018-06-18T22:38:28.709Z,4.50
2018-06-18T22:39:28.725Z,4.70
2018-06-18T22:40:28.701Z,4.80
2018-06-18T22:41:28.700Z,4.40
2018-06-18T22:42:28.739Z,4.40
2018-06-18T22:43:28.705Z,4.50
2018-06-18T22:44:28.691Z,4.70
2018-06-18T22:45:28.684Z,4.50
2018-06-18T22:46:28.677Z,4.60
2018-06-18T22:47:28.680Z,5.10
2018-06-18T22:48:28.675Z,4.40
2018-06-18T22:49:28.667Z,4.70
2018-06-18T22:50:28.667Z,4.80
2018-06-18T22:51:28.655Z,4.50
2018-06-18T22:52:28.663Z,4.70
2018-06-18T22:53:28.661Z,4.60
2018-06-18T22:54:28.653Z,4.50
2018-06-18T22:55:28.663Z,4.60
2018-06-18T22:56:28.643Z,4.40
2018-06-18T22:57:28.644Z,4.60
2018-06-18T22:58:28.638Z,4.60
2018-06-18T22:59:28.767Z,4.80
2018-06-18T23:00:28.633Z,4.60
2018-06-18T23:01:28.627Z,4.80
2018-06-18T23:02:28.615Z,5.00
2018-06-18T23:03:28.617Z,4.60
2018-06-18T23:04:28.625Z,4.70
2018-06-18T23:05:28.613Z,4.80
2018-06-18T23:06:28.624Z,4.50
2018-06-18T23:07:28.603Z,4.70
2018-06-18T23:08:28.602Z,4.80
2018-06-18T23:09:28.602Z,4.60
2018-06-18T23:10:28.595Z,5.00
2018-06-18T23:11:28.603Z,4.60
2018-06-18T23:12:28.589Z,4.50
2018-06-18T23:13:28.578Z,4.80
2018-06-18T23:14:28.579Z,4.50
2018-06-18T23:15:28.590Z,5.00
2018-06-18T23:16:28.586Z,4.90
2018-06-18T23:17:28.594Z,4.80
2018-06-18T23:18:28.569Z,4.50
2018-06-18T23:19:28.564Z,5.00
2018-06-18T23:20:28.557Z,4.50
2018-06-18T23:21:28.556Z,4.80
2018-06-18T23:22:28.557Z,5.00
2018-06-18T23:23:28.546Z,4.70
2018-06-18T23:24:28.537Z,5.20
2018-06-18T23:25:28.601Z,4.90
2018-06-18T23:26:28.547Z,5.00
2018-06-18T23:27:28.560Z,5.00
2018-06-18T23:28:28.529Z,5.10
2018-06-18T23:29:28.526Z,4.90
2018-06-18T23:30:28.516Z,4.70
2018-06-18T23:31:28.518Z,4.90
2018-06-18T23:32:28.513Z,5.20
2018-06-18T23:33:28.505Z,5.00
2018-06-18T23:34:28.523Z,4.80
2018-06-18T23:35:28.502Z,5.00
2018-06-18T23:36:28.509Z,4.80
2018-06-18T23:37:28.509Z,5.10
2018-06-18T23:38:28.493Z,4.80
2018-06-18T23:39:28.488Z,5.00
2018-06-18T23:40:28.604Z,5.00
2018-06-18T23:41:28.478Z,5.30
2018-06-18T23:42:28.480Z,5.00
2018-06-18T23:43:28.465Z,4.80
2018-06-18T23:44:28.467Z,4.80
2018-06-18T23:45:28.478Z,4.50
2018-06-18T23:46:28.480Z,5.00
2018-06-18T23:47:28.457Z,5.00
2018-06-18T23:48:28.454Z,4.90
2018-06-18T23:49:28.467Z,5.00
2018-06-18T23:50:28.503Z,5.50
2018-06-18T23:51:28.462Z,4.80
2018-06-18T23:52:28.430Z,5.30
2018-06-18T23:53:28.434Z,4.90
2018-06-18T23:54:28.430Z,5.30
2018-06-18T23:55:28.430Z,5.40
2018-06-18T23:56:28.423Z,5.20
2018-06-18T23:57:28.439Z,5.20
2018-06-18T23:58:28.414Z,5.10
2018-06-18T23:59:28.413Z,5.20
